HJFA4: James Fork nr Hackett 2S

                                SHEF ID:       HJFA4     James Fork nr Hackett 2S
STATION TYPE:

STAGE RIV-FLOW BAT-LOAD
ft cfs volt
Ccp-Rev Ccp-Rev Ccp-Rev
(America/Chicago)
04/30 00:00 6.51 418 12.53
04/30 01:00 6.40 403 12.51
04/30 02:00 6.32 392 12.49
04/30 03:00 6.24 381 12.47
04/30 04:00 6.16 370 12.45
04/30 05:00 6.09 360 12.42
04/30 06:00 6.03 351 12.40
04/30 07:00 5.96 341 12.37
04/30 08:00 5.91 333 12.65
04/30 09:00 5.86 326 13.22
04/30 10:00 5.81 319 13.20
04/30 11:00 5.77 313 13.17
04/30 12:00 5.72 306 13.05
04/30 13:00 5.68 301 13.01
04/30 14:00 5.65 296 13.06
04/30 15:00 5.61 291 13.04
04/30 16:00 5.58 287 13.00
04/30 17:00 5.55 283 12.98
04/30 18:00 5.53 280 12.90
04/30 19:00 5.50 276 12.86
04/30 20:00 5.47 272 12.72
04/30 21:00 5.44 268 12.62
04/30 22:00 ---- ---- ----
04/30 23:00 ---- ---- ----
Data processed at Fri 01May2026 02:35 GMT

NOTICE: If you are parsing this page

Please convert to using our Data API. Starting early 2026 we will be migrating to: https://water.usace.army.mil with modern pages rendered in JavaScript. When this migration completes you will no longer be able to scrape this page! CWMSDataAPI (CDA)

Timeseries IDs (TSIDs)

TSIDs used from left to right in the data table
HACK.Stage.Inst.1Hour.0.Ccp-Rev
HACK.Flow.Inst.1Hour.0.Ccp-Rev
HACK.Volt-Battery Load.Inst.1Hour.0.Ccp-Rev

                            

All information presented herein is the property of the government of the United States of America and may be revised or deleted at any time without prior notice. Dissemination of this information without the expressed written consent of the Public Affairs Office, Tulsa District U.S. Army Corps of Engineers is strictly prohibited. These data are gathered electronically and, as presented, have NOT undergone any form of quality control. These data are NOT guaranteed to be valid or correct.